createdAt,value
2018-07-07T00:00:59.877Z,101430.44
2018-07-07T00:02:00.660Z,101431.10
2018-07-07T00:03:01.440Z,101431.16
2018-07-07T00:04:04.423Z,101431.78
2018-07-07T00:05:01.993Z,101432.17
2018-07-07T00:06:03.788Z,101432.36
2018-07-07T00:07:04.567Z,101432.42
2018-07-07T00:08:05.335Z,101432.84
2018-07-07T00:09:06.124Z,101433.42
2018-07-07T00:10:06.882Z,101433.39
2018-07-07T00:11:07.698Z,101433.71
2018-07-07T00:12:08.456Z,101433.86
2018-07-07T00:13:09.225Z,101434.34
2018-07-07T00:14:09.998Z,101434.23
2018-07-07T00:15:10.771Z,101434.21
2018-07-07T00:16:11.572Z,101434.40
2018-07-07T00:17:12.343Z,101434.80
2018-07-07T00:18:13.126Z,101435.20
2018-07-07T00:19:13.897Z,101435.73
2018-07-07T00:20:14.672Z,101436.31
2018-07-07T00:21:15.471Z,101436.21
2018-07-07T00:22:16.242Z,101436.75
2018-07-07T00:23:17.023Z,101437.75
2018-07-07T00:24:17.795Z,101437.82
2018-07-07T00:25:18.567Z,101438.41
2018-07-07T00:26:19.363Z,101438.83
2018-07-07T00:27:20.148Z,101439.12
2018-07-07T00:28:20.922Z,101439.80
2018-07-07T00:29:21.682Z,101440.16
2018-07-07T00:30:22.468Z,101441.01
2018-07-07T00:31:23.253Z,101441.34
2018-07-07T00:32:24.030Z,101441.58
2018-07-07T00:33:24.800Z,101441.89
2018-07-07T00:34:25.577Z,101441.88
2018-07-07T00:35:26.351Z,101441.39
2018-07-07T00:36:27.149Z,101441.45
2018-07-07T00:37:27.928Z,101441.94
2018-07-07T00:38:28.696Z,101441.83
2018-07-07T00:39:29.475Z,101442.02
2018-07-07T00:40:30.247Z,101441.98
2018-07-07T00:41:31.048Z,101442.14
2018-07-07T00:42:31.828Z,101442.37
2018-07-07T00:43:32.597Z,101442.39
2018-07-07T00:44:33.377Z,101442.53
2018-07-07T00:45:34.150Z,101442.55
2018-07-07T00:46:34.949Z,101443.22
2018-07-07T00:47:35.725Z,101443.73
2018-07-07T00:48:36.501Z,101444.19
2018-07-07T00:49:37.269Z,101444.86
2018-07-07T00:50:38.053Z,101445.27
2018-07-07T00:51:38.865Z,101445.34
2018-07-07T00:52:40.090Z,101445.53
2018-07-07T01:04:07.395Z,101449.63
2018-07-07T01:05:07.094Z,101440.00
2018-07-07T01:06:08.874Z,101440.34
2018-07-07T01:07:09.644Z,101440.44
2018-07-07T01:08:10.444Z,101440.86
2018-07-07T01:09:11.219Z,101441.03
2018-07-07T01:10:11.993Z,101441.45
2018-07-07T01:11:12.781Z,101441.45
2018-07-07T01:12:13.525Z,101441.72
2018-07-07T01:13:14.320Z,101442.23
2018-07-07T01:14:17.855Z,101442.33
2018-07-07T01:15:15.615Z,101442.89
2018-07-07T01:16:16.389Z,101443.33
2018-07-07T01:17:17.164Z,101444.07
2018-07-07T01:18:17.983Z,101443.79
2018-07-07T01:19:18.747Z,101444.20
2018-07-07T01:20:19.529Z,101444.55
2018-07-07T01:21:20.290Z,101445.12
2018-07-07T01:22:21.067Z,101445.69
2018-07-07T01:23:21.868Z,101445.92
2018-07-07T01:24:23.645Z,101446.55
2018-07-07T01:25:23.417Z,101446.56
2018-07-07T01:26:24.189Z,101446.59
2018-07-07T01:27:24.965Z,101446.38
2018-07-07T01:28:25.770Z,101446.23
2018-07-07T01:29:26.546Z,101446.22
2018-07-07T01:30:27.322Z,101445.52
2018-07-07T01:31:28.089Z,101445.37
2018-07-07T01:32:28.864Z,101445.70
2018-07-07T01:33:29.663Z,101446.27
2018-07-07T01:34:31.431Z,101446.17
2018-07-07T01:35:31.211Z,101445.88
2018-07-07T01:36:31.975Z,101445.86
2018-07-07T01:37:32.747Z,101445.91
2018-07-07T01:38:33.572Z,101445.50
2018-07-07T01:39:34.319Z,101446.23
2018-07-07T01:40:35.096Z,101445.86
2018-07-07T01:41:35.868Z,101445.80
2018-07-07T01:42:36.642Z,101445.67
2018-07-07T01:43:37.438Z,101445.98
2018-07-07T01:44:38.214Z,101445.45
2018-07-07T01:45:38.985Z,101445.05
2018-07-07T01:46:39.760Z,101444.69
2018-07-07T01:47:40.533Z,101443.59
2018-07-07T01:48:41.361Z,101443.58
2018-07-07T01:49:41.099Z,101443.47
2018-07-07T01:50:42.873Z,101443.02
2018-07-07T01:51:43.647Z,101442.98
2018-07-07T01:52:44.422Z,101442.28
2018-07-07T01:53:45.221Z,101442.52
2018-07-07T01:54:45.996Z,101442.39
2018-07-07T01:55:46.770Z,101441.89
2018-07-07T01:56:47.542Z,101442.11
2018-07-07T01:57:48.318Z,101441.98
2018-07-07T01:58:49.114Z,101441.66
2018-07-07T01:59:49.887Z,101441.41
2018-07-07T02:00:50.658Z,101440.78
2018-07-07T02:01:51.436Z,101440.83
2018-07-07T02:02:52.206Z,101440.67
2018-07-07T02:03:53.009Z,101440.47
2018-07-07T02:04:53.775Z,101440.14
2018-07-07T02:05:54.549Z,101439.86
2018-07-07T02:06:55.319Z,101439.88
2018-07-07T02:07:56.091Z,101439.94
2018-07-07T02:08:56.891Z,101439.98
2018-07-07T02:09:57.666Z,101439.53
2018-07-07T02:10:58.446Z,101439.55
2018-07-07T02:11:59.223Z,101439.17
2018-07-07T02:12:59.991Z,101439.05
2018-07-07T02:14:00.800Z,101439.31
2018-07-07T02:15:01.576Z,101439.28
2018-07-07T02:16:02.345Z,101439.59
2018-07-07T02:17:03.118Z,101439.02
2018-07-07T02:18:03.896Z,101438.64
2018-07-07T02:19:04.691Z,101438.77
2018-07-07T02:20:05.474Z,101438.59
2018-07-07T02:21:06.251Z,101438.00
2018-07-07T02:22:07.022Z,101437.89
2018-07-07T02:23:07.791Z,101437.88
2018-07-07T02:24:08.597Z,101437.39
2018-07-07T02:25:09.371Z,101436.98
2018-07-07T02:26:10.147Z,101437.21
2018-07-07T02:27:10.920Z,101436.86
2018-07-07T02:28:11.694Z,101436.63
2018-07-07T02:29:12.494Z,101436.13
2018-07-07T02:30:13.267Z,101436.63
2018-07-07T02:31:14.066Z,101436.44
2018-07-07T02:32:14.831Z,101436.80
2018-07-07T02:33:15.599Z,101436.61
2018-07-07T02:34:16.400Z,101436.84
2018-07-07T02:35:17.174Z,101437.41
2018-07-07T02:36:17.947Z,101437.69
2018-07-07T02:37:18.718Z,101437.36
2018-07-07T02:38:19.501Z,101437.55
2018-07-07T02:39:20.292Z,101437.16
2018-07-07T02:40:21.071Z,101437.31
2018-07-07T02:41:21.846Z,101437.16
2018-07-07T02:42:22.624Z,101437.09
2018-07-07T02:43:23.399Z,101437.16
2018-07-07T02:44:24.197Z,101438.07
2018-07-07T02:45:24.978Z,101438.39
2018-07-07T02:46:25.841Z,101438.87
2018-07-07T02:47:25.529Z,101439.43
2018-07-07T02:48:27.300Z,101439.50
2018-07-07T02:49:28.100Z,101439.88
2018-07-07T02:50:28.874Z,101440.55
2018-07-07T02:51:29.645Z,101440.90
2018-07-07T02:52:30.428Z,101441.31
2018-07-07T02:53:31.609Z,101442.02
2018-07-07T02:56:27.991Z,101454.55
2018-07-07T02:57:28.755Z,101455.07
2018-07-07T02:58:29.517Z,101454.82
2018-07-07T02:59:30.295Z,101455.08
2018-07-07T03:00:31.093Z,101455.05
2018-07-07T03:01:31.860Z,101455.14
2018-07-07T03:02:32.636Z,101455.27
2018-07-07T03:03:33.406Z,101455.03
2018-07-07T03:04:34.183Z,101455.08
2018-07-07T03:05:34.989Z,101455.34
2018-07-07T03:06:36.774Z,101455.25
2018-07-07T03:07:36.519Z,101455.67
2018-07-07T03:08:37.286Z,101455.72
2018-07-07T03:09:38.070Z,101456.39
2018-07-07T03:10:38.865Z,101456.30
2018-07-07T03:11:39.644Z,101456.77
2018-07-07T03:12:40.414Z,101456.67
2018-07-07T03:13:41.183Z,101457.48
2018-07-07T03:14:41.956Z,101457.48
2018-07-07T03:15:42.762Z,101458.33
2018-07-07T03:16:43.523Z,101458.58
2018-07-07T03:17:44.296Z,101459.39
2018-07-07T03:18:45.070Z,101459.69
2018-07-07T03:19:45.852Z,101460.37
2018-07-07T03:20:46.640Z,101461.02
2018-07-07T03:21:47.433Z,101461.63
2018-07-07T03:22:48.189Z,101462.31
2018-07-07T03:23:48.961Z,101462.83
2018-07-07T03:24:49.729Z,101463.51
2018-07-07T03:25:50.523Z,101463.86
2018-07-07T03:26:51.295Z,101464.03
2018-07-07T03:27:52.076Z,101464.55
2018-07-07T03:28:52.838Z,101464.59
2018-07-07T03:29:53.613Z,101464.59
2018-07-07T03:30:54.441Z,101464.98
2018-07-07T03:31:55.202Z,101465.50
2018-07-07T03:32:55.969Z,101465.67
2018-07-07T03:33:56.743Z,101466.19
2018-07-07T03:34:57.515Z,101466.38
2018-07-07T03:35:58.316Z,101467.02
2018-07-07T03:36:59.090Z,101468.07
2018-07-07T03:37:59.918Z,101468.36
2018-07-07T03:38:59.639Z,101468.53
2018-07-07T03:40:01.416Z,101468.23
2018-07-07T03:41:02.220Z,101467.98
2018-07-07T03:42:02.987Z,101468.31
2018-07-07T03:43:03.767Z,101468.70
2018-07-07T03:44:04.534Z,101468.83
2018-07-07T03:45:05.309Z,101469.38
2018-07-07T03:46:06.115Z,101470.23
2018-07-07T03:47:06.879Z,101470.23
2018-07-07T03:48:07.644Z,101471.16
2018-07-07T03:49:08.418Z,101472.02
2018-07-07T03:50:09.200Z,101472.88
2018-07-07T03:51:09.991Z,101473.91
2018-07-07T03:52:10.763Z,101474.27
2018-07-07T03:53:11.541Z,101475.05
2018-07-07T03:54:12.325Z,101475.91
2018-07-07T03:55:13.090Z,101476.59
2018-07-07T03:56:13.890Z,101477.06
2018-07-07T03:57:14.665Z,101478.02
2018-07-07T03:58:15.438Z,101478.83
2018-07-07T03:59:16.213Z,101479.61
2018-07-07T04:00:16.987Z,101480.86
2018-07-07T04:01:17.798Z,101481.80
2018-07-07T04:02:18.573Z,101482.58
2018-07-07T04:03:19.333Z,101483.95
2018-07-07T04:04:20.098Z,101484.73
2018-07-07T04:05:20.874Z,101486.11
2018-07-07T04:06:21.677Z,101487.31
2018-07-07T04:07:22.524Z,101487.95
2018-07-07T04:08:22.217Z,101488.48
2018-07-07T04:09:23.986Z,101488.86
2018-07-07T04:10:24.768Z,101488.80
2018-07-07T04:11:25.565Z,101489.40
2018-07-07T04:12:26.342Z,101489.46
2018-07-07T04:13:27.113Z,101490.03
2018-07-07T04:14:27.884Z,101490.18
2018-07-07T04:15:28.656Z,101490.59
2018-07-07T04:16:29.457Z,101490.73
2018-07-07T04:17:30.231Z,101491.22
2018-07-07T04:18:31.014Z,101491.17
2018-07-07T04:19:31.773Z,101491.17
2018-07-07T04:20:32.541Z,101491.68
2018-07-07T04:21:33.364Z,101492.32
2018-07-07T04:22:34.115Z,101492.79
2018-07-07T04:23:34.897Z,101492.91
2018-07-07T04:24:35.666Z,101493.95
2018-07-07T04:25:36.443Z,101494.63
2018-07-07T04:26:37.246Z,101494.89
2018-07-07T04:27:38.015Z,101494.94
2018-07-07T04:28:38.805Z,101495.28
2018-07-07T04:29:39.569Z,101495.84
2018-07-07T04:30:40.361Z,101496.27
2018-07-07T04:31:41.142Z,101496.05
2018-07-07T04:32:41.925Z,101496.05
2018-07-07T04:33:42.697Z,101496.55
2018-07-07T04:34:43.469Z,101496.59
2018-07-07T04:35:44.243Z,101497.43
2018-07-07T04:36:45.043Z,101497.66
2018-07-07T04:37:45.816Z,101498.49
2018-07-07T04:38:46.593Z,101498.51
2018-07-07T04:39:47.366Z,101498.84
2018-07-07T04:40:48.137Z,101499.20
2018-07-07T04:41:48.932Z,101499.87
2018-07-07T04:42:49.708Z,101500.17
2018-07-07T04:43:50.480Z,101499.69
2018-07-07T04:44:52.670Z,101499.80
2018-07-07T04:45:51.947Z,101500.25
2018-07-07T04:46:51.123Z,101500.55
2018-07-07T04:47:51.321Z,101501.42
2018-07-07T04:52:47.969Z,101516.97
2018-07-07T04:53:48.737Z,101516.40
2018-07-07T04:54:49.508Z,101516.05
2018-07-07T04:55:50.281Z,101516.65
2018-07-07T04:56:51.052Z,101516.66
2018-07-07T04:57:51.873Z,101516.36
2018-07-07T04:58:52.627Z,101516.80
2018-07-07T04:59:53.397Z,101516.97
2018-07-07T05:00:54.174Z,101517.22
2018-07-07T05:01:54.937Z,101517.39
2018-07-07T05:02:55.744Z,101516.95
2018-07-07T05:03:56.520Z,101517.17
2018-07-07T05:04:57.307Z,101517.30
2018-07-07T05:05:58.074Z,101517.47
2018-07-07T05:06:58.847Z,101518.00
2018-07-07T05:07:59.646Z,101517.87
2018-07-07T05:09:00.416Z,101517.95
2018-07-07T05:10:01.187Z,101518.33
2018-07-07T05:11:01.966Z,101518.45
2018-07-07T05:12:02.731Z,101518.95
2018-07-07T05:13:03.526Z,101519.53
2018-07-07T05:14:04.304Z,101519.05
2018-07-07T05:15:05.074Z,101519.77
2018-07-07T05:16:05.850Z,101519.70
2018-07-07T05:17:06.618Z,101520.25
2018-07-07T05:18:07.422Z,101520.28
2018-07-07T05:19:08.193Z,101520.94
2018-07-07T05:20:08.966Z,101520.66
2018-07-07T05:21:09.738Z,101520.81
2018-07-07T05:22:10.512Z,101520.78
2018-07-07T05:23:11.305Z,101521.01
2018-07-07T05:24:12.080Z,101520.77
2018-07-07T05:25:12.853Z,101520.98
2018-07-07T05:26:13.621Z,101520.92
2018-07-07T05:27:14.394Z,101520.97
2018-07-07T05:28:15.188Z,101521.27
2018-07-07T05:29:15.961Z,101520.91
2018-07-07T05:30:16.745Z,101521.64
2018-07-07T05:31:17.508Z,101521.91
2018-07-07T05:32:18.289Z,101521.63
2018-07-07T05:33:19.079Z,101522.44
2018-07-07T05:34:19.851Z,101522.02
2018-07-07T05:35:20.627Z,101522.22
2018-07-07T05:36:21.396Z,101522.11
2018-07-07T05:37:22.219Z,101522.89
2018-07-07T05:38:21.969Z,101522.80
2018-07-07T05:39:23.746Z,101523.06
2018-07-07T05:40:24.520Z,101522.87
2018-07-07T05:41:25.289Z,101522.98
2018-07-07T05:42:26.065Z,101523.30
2018-07-07T05:43:26.871Z,101523.27
2018-07-07T05:44:27.634Z,101523.73
2018-07-07T05:45:28.420Z,101523.45
2018-07-07T05:46:29.188Z,101522.77
2018-07-07T05:47:29.966Z,101522.66
2018-07-07T05:48:30.761Z,101523.03
2018-07-07T05:49:31.540Z,101523.02
2018-07-07T05:50:32.307Z,101522.78
2018-07-07T05:51:33.079Z,101523.11
2018-07-07T05:52:33.849Z,101522.98
2018-07-07T05:53:34.659Z,101523.05
2018-07-07T05:54:35.438Z,101522.82
2018-07-07T05:55:36.205Z,101523.07
2018-07-07T05:56:36.998Z,101522.80
2018-07-07T05:57:37.771Z,101523.35
2018-07-07T05:58:38.572Z,101523.47
2018-07-07T05:59:39.350Z,101524.22
2018-07-07T06:00:40.128Z,101524.64
2018-07-07T06:01:40.903Z,101524.75
2018-07-07T06:02:41.700Z,101525.37
2018-07-07T06:03:42.472Z,101525.56
2018-07-07T06:04:43.241Z,101525.97
2018-07-07T06:05:44.017Z,101526.66
2018-07-07T06:06:44.807Z,101526.45
2018-07-07T06:07:45.588Z,101527.20
2018-07-07T06:08:46.368Z,101527.98
2018-07-07T06:09:47.165Z,101528.37
2018-07-07T06:10:47.941Z,101529.01
2018-07-07T06:11:48.693Z,101529.15
2018-07-07T06:12:49.471Z,101529.02
2018-07-07T06:13:50.274Z,101528.52
2018-07-07T06:14:51.057Z,101528.73
2018-07-07T06:15:51.820Z,101528.55
2018-07-07T06:16:52.596Z,101528.73
2018-07-07T06:17:53.372Z,101528.63
2018-07-07T06:18:54.168Z,101528.37
2018-07-07T06:19:54.936Z,101528.30
2018-07-07T06:20:55.721Z,101528.42
2018-07-07T06:21:56.482Z,101528.86
2018-07-07T06:22:57.268Z,101528.50
2018-07-07T06:23:58.056Z,101528.95
2018-07-07T06:24:58.827Z,101528.88
2018-07-07T06:25:59.613Z,101528.94
2018-07-07T06:27:00.377Z,101528.97
2018-07-07T06:28:01.151Z,101528.90
2018-07-07T06:29:01.953Z,101529.25
2018-07-07T06:30:02.734Z,101529.22
2018-07-07T06:31:03.501Z,101529.56
2018-07-07T06:32:04.299Z,101529.92
2018-07-07T06:33:05.053Z,101530.48
2018-07-07T06:34:05.852Z,101531.02
2018-07-07T06:35:06.631Z,101530.84
2018-07-07T06:36:07.414Z,101530.98
2018-07-07T06:37:08.180Z,101531.50
2018-07-07T06:38:08.951Z,101530.98
2018-07-07T06:39:09.747Z,101530.64
2018-07-07T06:40:10.520Z,101530.81
2018-07-07T06:41:11.713Z,101530.17
2018-07-07T06:42:11.916Z,101529.60
2018-07-07T06:43:11.139Z,101529.55
2018-07-07T06:44:11.362Z,101529.36
2018-07-07T06:56:30.625Z,101517.88
2018-07-07T06:57:31.389Z,101518.98
2018-07-07T06:58:32.164Z,101518.20
2018-07-07T06:59:34.012Z,101518.02
2018-07-07T07:00:32.755Z,101518.20
2018-07-07T07:01:34.527Z,101517.79
2018-07-07T07:02:35.300Z,101517.94
2018-07-07T07:03:36.072Z,101517.67
2018-07-07T07:04:36.880Z,101518.14
2018-07-07T07:05:37.642Z,101517.84
2018-07-07T07:06:38.639Z,101517.44
2018-07-07T07:07:38.354Z,101517.56
2018-07-07T07:08:40.126Z,101517.66
2018-07-07T07:09:40.935Z,101517.05
2018-07-07T07:10:41.704Z,101516.54
2018-07-07T07:11:42.491Z,101515.83
2018-07-07T07:12:43.262Z,101515.45
2018-07-07T07:13:46.192Z,101515.42
2018-07-07T07:14:43.831Z,101514.78
2018-07-07T07:15:45.608Z,101514.56
2018-07-07T07:16:46.409Z,101514.52
2018-07-07T07:17:47.148Z,101514.05
2018-07-07T07:18:48.164Z,101514.55
2018-07-07T07:19:53.954Z,101514.44
2018-07-07T07:20:51.637Z,101514.22
2018-07-07T07:21:56.711Z,101514.56
2018-07-07T07:22:50.269Z,101514.17
2018-07-07T07:24:32.898Z,101514.68
2018-07-07T07:24:51.854Z,101514.63
2018-07-07T07:25:56.314Z,101514.76
2018-07-07T07:26:56.206Z,101514.70
2018-07-07T07:27:54.974Z,101514.66
2018-07-07T07:28:55.822Z,101514.92
2018-07-07T07:30:01.566Z,101514.87
2018-07-07T07:32:17.698Z,101514.78
2018-07-07T07:33:06.792Z,101514.42
2018-07-07T07:33:58.524Z,101513.93
2018-07-07T07:37:43.124Z,101509.61
2018-07-07T07:38:42.442Z,101511.56
2018-07-07T07:39:52.341Z,101511.13
2018-07-07T07:40:41.879Z,101510.20
2018-07-07T07:41:49.661Z,101509.95
2018-07-07T07:43:05.275Z,101509.43
2018-07-07T07:45:02.129Z,101509.13
2018-07-07T07:45:23.987Z,101508.37
2018-07-07T07:45:54.751Z,101508.05
2018-07-07T07:47:10.292Z,101507.45
2018-07-07T07:47:49.715Z,101506.64
2018-07-07T08:00:04.153Z,101495.81
2018-07-07T08:01:00.478Z,101502.17
2018-07-07T08:02:20.773Z,101502.03
2018-07-07T08:03:13.343Z,101502.09
2018-07-07T08:05:12.075Z,101502.34
2018-07-07T08:06:12.530Z,101501.77
2018-07-07T08:06:15.104Z,101501.82
2018-07-07T08:12:44.024Z,101496.75
2018-07-07T09:42:11.364Z,101486.18
2018-07-07T10:06:38.489Z,101478.07
2018-07-07T10:08:24.734Z,101490.17
2018-07-07T10:22:04.597Z,101475.45
2018-07-07T10:33:44.858Z,101454.78
2018-07-07T10:38:50.628Z,101456.05
2018-07-07T10:39:56.395Z,101460.45
2018-07-07T10:45:31.683Z,101463.23
2018-07-07T10:55:49.049Z,101447.91
2018-07-07T10:57:02.322Z,101437.90
2018-07-07T10:58:49.118Z,101452.48
2018-07-07T10:59:51.910Z,101448.88
2018-07-07T11:04:43.898Z,101446.66
2018-07-07T11:06:45.643Z,101445.61
2018-07-07T11:37:31.296Z,101423.47
2018-07-07T11:38:31.148Z,101421.03
2018-07-07T11:40:22.003Z,101420.67
2018-07-07T11:53:30.525Z,101438.98
2018-07-07T11:53:43.243Z,101442.11
2018-07-07T11:59:45.560Z,101445.10
2018-07-07T12:01:31.489Z,101438.76
2018-07-07T12:35:01.687Z,101418.28
2018-07-07T12:48:03.407Z,101400.98
2018-07-07T12:55:00.971Z,101400.16
2018-07-07T13:01:26.526Z,101400.92
2018-07-07T13:07:21.899Z,101407.33
2018-07-07T13:22:21.964Z,101394.78
2018-07-07T13:23:51.367Z,101392.00
2018-07-07T13:29:56.516Z,101410.14
2018-07-07T13:44:41.658Z,101392.66
2018-07-07T15:58:35.401Z,101388.78
2018-07-07T16:36:24.422Z,101368.56
2018-07-07T21:30:58.929Z,101453.73
2018-07-07T21:52:35.605Z,101457.00
2018-07-07T21:53:37.964Z,101450.94
2018-07-07T21:55:02.938Z,101450.74
2018-07-07T21:56:37.732Z,101450.20
2018-07-07T21:57:41.762Z,101450.69
2018-07-07T21:58:18.565Z,101450.72
2018-07-07T22:50:49.720Z,101461.72
2018-07-07T22:51:23.134Z,101456.46
2018-07-07T23:00:29.677Z,101457.89
